Time;durP1;ratioP1;P1;durP2;ratioP2;P2;SDS_P1;SDS_P2;PMS_P1;PMS_P2;Temp;Humidity;BMP_temperature;BMP_pressure;BME280_temperature;BME280_humidity;BME280_pressure;Samples;Min_cycle;Max_cycle;Signal;HPM_P1;HPM_P2
2022/03/11 00:00:36;;;;;;;10.73;8.57;;;2.90;99.90;;;;;;5099986;28;20307;-71
2022/03/11 00:03:04;;;;;;;13.43;9.10;;;2.80;99.90;;;;;;5099177;28;20636;-70
2022/03/11 00:05:32;;;;;;;14.25;9.52;;;2.80;99.90;;;;;;5102055;27;20208;-71
2022/03/11 00:08:01;;;;;;;11.63;9.38;;;2.70;99.90;;;;;;5102503;28;20196;-71
2022/03/11 00:10:29;;;;;;;10.85;8.63;;;2.70;99.90;;;;;;5100884;28;20228;-71
2022/03/11 00:12:58;;;;;;;13.77;10.00;;;2.70;99.90;;;;;;5101326;28;20206;-72
2022/03/11 00:15:26;;;;;;;11.73;9.57;;;2.60;99.90;;;;;;5100553;28;20810;-70
2022/03/11 00:17:54;;;;;;;11.73;9.45;;;2.60;99.90;;;;;;5101122;28;20856;-70
2022/03/11 00:20:22;;;;;;;12.93;8.35;;;2.50;99.90;;;;;;5104369;28;20223;-70
2022/03/11 00:22:53;;;;;;;14.18;8.63;;;2.50;99.90;;;;;;5104344;28;20199;-70
2022/03/11 00:25:23;;;;;;;10.82;7.78;;;2.40;99.90;;;;;;5103248;28;20773;-72
2022/03/11 00:27:51;;;;;;;9.25;8.27;;;2.40;99.90;;;;;;5103244;28;20191;-70
2022/03/11 00:30:20;;;;;;;10.60;8.23;;;2.40;99.90;;;;;;5105274;28;20281;-73
2022/03/11 00:32:48;;;;;;;9.98;7.30;;;2.30;99.90;;;;;;5109285;28;20278;-71
2022/03/11 00:35:15;;;;;;;9.88;7.90;;;2.30;99.90;;;;;;5111114;27;20272;-71
2022/03/11 00:37:43;;;;;;;10.95;8.35;;;2.20;99.90;;;;;;5127149;28;20291;-72
2022/03/11 00:40:13;;;;;;;9.02;7.18;;;2.30;99.90;;;;;;5127019;28;20282;-72
2022/03/11 00:42:42;;;;;;;9.88;8.40;;;2.30;99.90;;;;;;5126830;28;20387;-73
2022/03/11 00:45:11;;;;;;;10.07;7.38;;;2.30;99.90;;;;;;5119832;28;20275;-70
2022/03/11 00:47:39;;;;;;;9.52;8.25;;;2.20;99.90;;;;;;5114508;27;20767;-69
2022/03/11 00:50:08;;;;;;;11.55;8.07;;;2.20;99.90;;;;;;5113669;28;20239;-71
2022/03/11 00:52:35;;;;;;;8.75;6.55;;;2.20;99.90;;;;;;5113062;28;20187;-71
2022/03/11 00:55:06;;;;;;;10.35;6.93;;;2.20;99.90;;;;;;5105095;28;20204;-72
2022/03/11 00:57:34;;;;;;;12.13;8.20;;;2.10;99.90;;;;;;5103263;28;20215;-75
2022/03/11 01:00:05;;;;;;;13.18;8.13;;;2.10;99.90;;;;;;5103004;28;20752;-73
2022/03/11 01:02:34;;;;;;;9.88;6.93;;;2.00;99.90;;;;;;5102167;27;20242;-73
2022/03/11 01:05:04;;;;;;;11.80;7.80;;;2.00;99.90;;;;;;5102507;28;20226;-73
2022/03/11 01:07:32;;;;;;;7.30;6.35;;;2.00;99.90;;;;;;5102394;28;20198;-74
2022/03/11 01:10:00;;;;;;;9.95;7.35;;;2.00;99.90;;;;;;5102395;28;20272;-73
2022/03/11 01:12:30;;;;;;;8.27;7.28;;;1.90;99.90;;;;;;5103798;28;20190;-73
2022/03/11 01:14:58;;;;;;;20.08;8.70;;;1.90;99.90;;;;;;5103382;28;20199;-72
2022/03/11 01:17:30;;;;;;;10.32;7.60;;;1.90;99.90;;;;;;5103635;28;20281;-70
2022/03/11 01:19:58;;;;;;;9.23;6.80;;;1.80;99.90;;;;;;5102507;28;20785;-70
2022/03/11 01:22:27;;;;;;;9.02;7.30;;;1.80;99.90;;;;;;5102376;28;20783;-69
2022/03/11 01:24:55;;;;;;;11.05;7.60;;;1.80;99.90;;;;;;5102519;28;20206;-68
2022/03/11 01:27:23;;;;;;;11.52;7.80;;;1.80;99.90;;;;;;5102081;28;20770;-70
2022/03/11 01:29:53;;;;;;;10.13;7.47;;;1.80;99.90;;;;;;5112763;28;20208;-68
2022/03/11 01:32:21;;;;;;;8.38;6.47;;;1.80;99.90;;;;;;5102753;28;20797;-71
2022/03/11 01:34:50;;;;;;;7.88;6.50;;;1.80;99.90;;;;;;5102865;28;20206;-70
2022/03/11 01:37:18;;;;;;;10.50;7.30;;;1.80;99.90;;;;;;5103329;28;20203;-70
2022/03/11 01:39:46;;;;;;;12.43;7.25;;;1.80;99.90;;;;;;5102848;28;20229;-69
2022/03/11 01:42:14;;;;;;;14.23;7.60;;;1.70;99.90;;;;;;5102649;28;20206;-70
2022/03/11 01:44:42;;;;;;;8.68;7.00;;;1.70;99.90;;;;;;5101876;28;20200;-68
2022/03/11 01:47:09;;;;;;;8.82;6.80;;;1.70;99.90;;;;;;5101985;28;20200;-69
2022/03/11 01:49:37;;;;;;;6.75;6.10;;;1.60;99.90;;;;;;5101949;28;20290;-70
2022/03/11 01:52:07;;;;;;;9.00;7.30;;;1.60;99.90;;;;;;5102916;28;20202;-70
2022/03/11 01:54:35;;;;;;;9.20;6.60;;;1.60;99.90;;;;;;5103977;28;20205;-70
2022/03/11 01:57:04;;;;;;;9.40;6.30;;;1.60;99.90;;;;;;5102663;28;20286;-71
2022/03/11 01:59:32;;;;;;;9.98;7.35;;;1.60;99.90;;;;;;5102470;28;20246;-70
2022/03/11 02:02:00;;;;;;;9.32;6.40;;;1.60;99.90;;;;;;5102474;28;20202;-71
2022/03/11 02:04:29;;;;;;;10.05;6.75;;;1.50;99.90;;;;;;5101105;28;20230;-70
2022/03/11 02:06:58;;;;;;;11.45;6.97;;;1.50;99.90;;;;;;5107546;28;20205;-72
2022/03/11 02:09:28;;;;;;;9.05;6.35;;;1.50;99.90;;;;;;5101620;28;20726;-70
2022/03/11 02:11:56;;;;;;;10.07;7.45;;;1.40;99.90;;;;;;5101753;27;20603;-71
2022/03/11 02:14:24;;;;;;;9.57;6.57;;;1.50;99.90;;;;;;5102303;28;20200;-70
2022/03/11 02:16:51;;;;;;;9.57;6.85;;;1.40;99.90;;;;;;5102811;28;20200;-70
2022/03/11 02:19:19;;;;;;;11.25;7.07;;;1.40;99.90;;;;;;5102645;28;20228;-69
2022/03/11 02:21:48;;;;;;;11.32;6.93;;;1.40;99.90;;;;;;5101644;28;20200;-70
2022/03/11 02:24:18;;;;;;;9.20;7.05;;;1.30;99.90;;;;;;5100784;28;20302;-70
2022/03/11 02:26:46;;;;;;;9.00;6.25;;;1.30;99.90;;;;;;5100977;28;20240;-70
2022/03/11 02:29:13;;;;;;;10.75;6.53;;;1.30;99.90;;;;;;5100647;28;20322;-73
2022/03/11 02:31:41;;;;;;;12.05;7.10;;;1.30;99.90;;;;;;5101078;28;20198;-77
2022/03/11 02:34:10;;;;;;;11.20;7.40;;;1.30;99.90;;;;;;5100780;28;20203;-70
2022/03/11 02:36:37;;;;;;;8.82;6.72;;;1.30;99.90;;;;;;5099893;28;20278;-70
2022/03/11 02:39:06;;;;;;;9.70;6.25;;;1.30;99.90;;;;;;5100241;28;20230;-70
2022/03/11 02:41:36;;;;;;;9.88;7.13;;;1.30;99.90;;;;;;5099797;28;20874;-71
2022/03/11 02:44:05;;;;;;;8.45;6.68;;;1.20;99.90;;;;;;5100337;28;20198;-71
2022/03/11 02:46:33;;;;;;;9.75;6.93;;;1.20;99.90;;;;;;5100274;28;20890;-71
2022/03/11 02:49:02;;;;;;;9.50;7.30;;;1.20;99.90;;;;;;5099649;28;20681;-71
2022/03/11 02:51:30;;;;;;;10.95;6.60;;;1.10;99.90;;;;;;5100181;28;20202;-72
2022/03/11 02:53:57;;;;;;;10.05;6.50;;;1.00;99.90;;;;;;5099281;28;20306;-72
2022/03/11 02:56:26;;;;;;;12.45;7.60;;;1.00;99.90;;;;;;5099897;28;20203;-72
2022/03/11 02:58:55;;;;;;;10.77;7.57;;;1.00;99.90;;;;;;5099903;28;20233;-70
2022/03/11 03:01:23;;;;;;;12.07;7.20;;;1.00;99.90;;;;;;5099711;28;20282;-71
2022/03/11 03:03:51;;;;;;;13.07;6.75;;;1.00;99.90;;;;;;5099243;28;20233;-72
2022/03/11 03:06:18;;;;;;;11.35;7.93;;;1.00;99.90;;;;;;5099475;28;20196;-70
2022/03/11 03:08:46;;;;;;;10.75;7.07;;;0.90;99.90;;;;;;5098818;27;20229;-71
2022/03/11 03:11:14;;;;;;;13.77;7.80;;;0.90;99.90;;;;;;5099491;28;20709;-72
2022/03/11 03:13:42;;;;;;;8.98;6.65;;;0.90;99.90;;;;;;5099106;28;20204;-70
2022/03/11 03:16:11;;;;;;;10.45;7.22;;;0.90;99.90;;;;;;5099884;28;20259;-70
2022/03/11 03:18:39;;;;;;;11.68;6.13;;;0.90;99.90;;;;;;5101672;28;20223;-71
2022/03/11 03:21:07;;;;;;;10.55;7.50;;;0.90;99.90;;;;;;5100107;28;20226;-71
2022/03/11 03:23:35;;;;;;;9.10;6.97;;;0.90;99.90;;;;;;5099676;28;20201;-72
2022/03/11 03:26:02;;;;;;;9.50;7.22;;;0.80;99.90;;;;;;5099249;28;20780;-72
2022/03/11 03:28:30;;;;;;;12.70;7.05;;;0.80;99.90;;;;;;5099335;28;20373;-71
2022/03/11 03:30:58;;;;;;;10.02;8.10;;;0.80;99.90;;;;;;5098931;28;20227;-71
2022/03/11 03:33:27;;;;;;;11.45;7.68;;;0.70;99.90;;;;;;5099255;28;20195;-71
2022/03/11 03:35:55;;;;;;;10.70;7.72;;;0.70;99.90;;;;;;5099062;28;20306;-70
2022/03/11 03:38:23;;;;;;;12.15;7.45;;;0.70;99.90;;;;;;5098795;28;20307;-71
2022/03/11 03:40:51;;;;;;;13.27;7.40;;;0.70;99.90;;;;;;5099474;28;20307;-72
2022/03/11 03:43:19;;;;;;;12.88;7.60;;;0.60;99.90;;;;;;5098792;28;20203;-70
2022/03/11 03:45:47;;;;;;;12.00;7.88;;;0.60;99.90;;;;;;5099031;28;20844;-72
2022/03/11 03:48:14;;;;;;;11.93;7.45;;;0.60;99.90;;;;;;5098903;28;20195;-70
2022/03/11 03:50:44;;;;;;;10.63;7.68;;;0.50;99.90;;;;;;5099039;28;20234;-70
2022/03/11 03:53:11;;;;;;;12.10;7.75;;;0.50;99.90;;;;;;5100062;28;20197;-71
2022/03/11 03:55:39;;;;;;;11.70;8.23;;;0.50;99.90;;;;;;5103173;28;20786;-71
2022/03/11 03:58:07;;;;;;;13.38;8.70;;;0.50;99.90;;;;;;5102924;28;20274;-71
2022/03/11 04:00:35;;;;;;;14.77;8.73;;;0.50;99.90;;;;;;5104442;28;20220;-71
2022/03/11 04:03:04;;;;;;;12.35;8.55;;;0.40;99.90;;;;;;5103012;28;20206;-70
2022/03/11 04:05:32;;;;;;;13.05;7.57;;;0.40;99.90;;;;;;5102497;28;20344;-71
2022/03/11 04:08:01;;;;;;;13.98;8.43;;;0.40;99.90;;;;;;5103020;28;20655;-71
2022/03/11 04:10:29;;;;;;;12.07;8.15;;;0.40;99.90;;;;;;5102237;27;20864;-72
2022/03/11 04:12:57;;;;;;;12.73;8.02;;;0.30;99.90;;;;;;5102444;28;20720;-71
2022/03/11 04:15:25;;;;;;;14.68;8.18;;;0.30;99.90;;;;;;5102579;28;20208;-70
2022/03/11 04:17:52;;;;;;;9.63;7.85;;;0.30;99.90;;;;;;5102284;28;20227;-70
2022/03/11 04:20:20;;;;;;;14.43;8.23;;;0.30;99.90;;;;;;5102467;28;20224;-70
2022/03/11 04:22:48;;;;;;;10.43;7.95;;;0.30;99.90;;;;;;5103220;28;20210;-71
2022/03/11 04:25:17;;;;;;;13.07;8.13;;;0.20;99.90;;;;;;5104277;28;20204;-70
2022/03/11 04:27:45;;;;;;;15.15;7.65;;;0.20;99.90;;;;;;5105388;28;20712;-71
2022/03/11 04:30:15;;;;;;;12.32;8.52;;;0.20;99.90;;;;;;5103525;27;20303;-70
2022/03/11 04:32:47;;;;;;;12.93;8.32;;;0.10;99.90;;;;;;5102996;28;20202;-71
2022/03/11 04:35:19;;;;;;;12.15;8.57;;;0.10;99.90;;;;;;5102193;28;20185;-69
2022/03/11 04:37:47;;;;;;;12.57;8.02;;;0.00;99.90;;;;;;5103133;28;20199;-71
2022/03/11 04:40:17;;;;;;;14.95;9.50;;;-0.10;99.90;;;;;;5103270;28;20219;-71
2022/03/11 04:42:50;;;;;;;15.07;8.40;;;0.00;99.90;;;;;;5107603;28;20244;-71
2022/03/11 04:45:22;;;;;;;12.88;7.78;;;0.00;99.90;;;;;;5103981;28;20180;-72
2022/03/11 04:47:53;;;;;;;14.35;7.90;;;0.00;99.90;;;;;;5104059;28;20196;-71
2022/03/11 04:50:21;;;;;;;12.98;9.02;;;-0.10;99.90;;;;;;5104127;28;20230;-72
2022/03/11 04:52:49;;;;;;;9.45;7.28;;;-0.10;99.90;;;;;;5103650;28;20209;-70
2022/03/11 04:55:17;;;;;;;14.93;9.38;;;-0.20;99.90;;;;;;5103318;28;20210;-72
2022/03/11 04:57:47;;;;;;;11.88;8.02;;;-0.20;99.90;;;;;;5102179;27;20298;-72
2022/03/11 05:00:17;;;;;;;11.35;7.45;;;-0.10;99.90;;;;;;5103569;28;20239;-69
2022/03/11 05:02:45;;;;;;;13.82;8.00;;;-0.20;99.90;;;;;;5102849;28;20208;-71
2022/03/11 05:05:17;;;;;;;10.95;8.13;;;-0.20;99.90;;;;;;5104112;28;20203;-68
2022/03/11 05:07:45;;;;;;;18.75;8.60;;;-0.20;99.90;;;;;;5104000;28;20196;-70
2022/03/11 05:10:15;;;;;;;15.48;8.02;;;-0.30;99.90;;;;;;5103040;28;20317;-70
2022/03/11 05:12:53;;;;;;;13.02;7.55;;;-0.30;99.90;;;;;;5102450;28;20268;-70
2022/03/11 05:15:24;;;;;;;14.32;8.20;;;-0.20;99.90;;;;;;5103549;28;20206;-69
2022/03/11 05:17:56;;;;;;;12.75;8.10;;;-0.20;99.90;;;;;;5102864;28;20233;-68
2022/03/11 05:20:24;;;;;;;12.48;8.70;;;-0.20;99.90;;;;;;5101829;28;20840;-66
2022/03/11 05:22:54;;;;;;;11.95;8.43;;;-0.20;99.90;;;;;;5101980;28;20202;-69
2022/03/11 05:25:22;;;;;;;14.85;9.65;;;-0.30;99.90;;;;;;5101322;28;20199;-70
2022/03/11 05:27:50;;;;;;;15.77;8.43;;;-0.30;99.90;;;;;;5117265;27;20202;-70
2022/03/11 05:30:18;;;;;;;12.23;8.77;;;-0.30;99.90;;;;;;5121483;27;20213;-71
2022/03/11 05:32:49;;;;;;;10.00;7.30;;;-0.30;99.90;;;;;;5122412;27;20286;-69
2022/03/11 05:35:17;;;;;;;13.70;8.30;;;-0.30;99.90;;;;;;5122204;27;20201;-71
2022/03/11 05:37:46;;;;;;;13.20;7.47;;;-0.30;99.90;;;;;;5122404;27;20230;-69
2022/03/11 05:40:14;;;;;;;14.40;8.63;;;-0.20;99.90;;;;;;5121766;27;20229;-69
2022/03/11 05:42:43;;;;;;;14.07;8.32;;;-0.30;99.90;;;;;;5122088;27;20206;-72
2022/03/11 05:45:11;;;;;;;11.82;8.20;;;-0.30;99.90;;;;;;5122354;27;20286;-72
2022/03/11 05:47:39;;;;;;;11.65;7.95;;;-0.40;99.90;;;;;;5122235;27;20290;-70
2022/03/11 05:50:09;;;;;;;13.63;8.90;;;-0.40;99.90;;;;;;5121661;27;20223;-71
2022/03/11 05:52:38;;;;;;;8.85;6.70;;;-0.40;99.90;;;;;;5121827;27;20202;-70
2022/03/11 05:55:09;;;;;;;11.18;7.43;;;-0.40;99.90;;;;;;5121682;27;20199;-69
2022/03/11 05:57:40;;;;;;;11.50;8.10;;;-0.50;99.90;;;;;;5120809;27;20287;-69
2022/03/11 06:00:09;;;;;;;9.02;7.13;;;-0.40;99.90;;;;;;5120966;27;20255;-69
2022/03/11 06:02:39;;;;;;;15.77;8.27;;;-0.50;99.90;;;;;;5120929;27;20206;-69
2022/03/11 06:05:10;;;;;;;12.50;8.05;;;-0.50;99.90;;;;;;5121087;27;20199;-71
2022/03/11 06:07:40;;;;;;;15.48;9.10;;;-0.50;99.90;;;;;;5121260;27;20209;-70
2022/03/11 06:10:09;;;;;;;13.18;9.55;;;-0.50;99.90;;;;;;5120776;27;20916;-70
2022/03/11 06:12:36;;;;;;;11.02;7.40;;;-0.50;99.90;;;;;;5120579;27;20290;-70
2022/03/11 06:15:08;;;;;;;10.23;7.82;;;-0.40;99.90;;;;;;5121044;27;20289;-69
2022/03/11 06:17:39;;;;;;;12.80;8.60;;;-0.40;99.90;;;;;;5121051;27;20286;-70
2022/03/11 06:20:12;;;;;;;12.38;7.72;;;-0.40;99.90;;;;;;5122181;27;20219;-68
2022/03/11 06:22:49;;;;;;;13.52;9.07;;;-0.30;99.90;;;;;;5122368;27;20222;-68
2022/03/11 06:25:21;;;;;;;13.43;9.18;;;-0.30;99.90;;;;;;5122440;27;20199;-70
2022/03/11 06:27:49;;;;;;;10.48;7.15;;;-0.30;99.90;;;;;;5120833;27;20214;-68
2022/03/11 06:30:17;;;;;;;13.25;8.70;;;-0.30;99.90;;;;;;5121239;27;20612;-70
2022/03/11 06:32:50;;;;;;;16.20;9.02;;;-0.30;99.90;;;;;;5121371;27;20192;-70
2022/03/11 06:35:22;;;;;;;13.25;7.75;;;-0.30;99.90;;;;;;5121418;27;20183;-70
2022/03/11 06:37:54;;;;;;;14.07;8.75;;;-0.20;99.90;;;;;;5121947;27;20187;-69
2022/03/11 06:40:22;;;;;;;16.92;8.10;;;-0.20;99.90;;;;;;5120903;27;20231;-70
2022/03/11 06:42:51;;;;;;;11.57;7.32;;;-0.10;99.90;;;;;;5120117;27;20202;-68
2022/03/11 06:45:19;;;;;;;15.57;8.40;;;-0.10;99.90;;;;;;5120829;27;20236;-70
2022/03/11 06:47:51;;;;;;;10.82;7.47;;;-0.10;99.90;;;;;;5120861;27;20858;-70
2022/03/11 06:50:20;;;;;;;14.68;8.55;;;-0.10;99.90;;;;;;5121467;27;20215;-69
2022/03/11 06:52:49;;;;;;;11.38;8.10;;;-0.10;99.90;;;;;;5120271;27;20280;-70
2022/03/11 06:55:21;;;;;;;14.13;7.40;;;-0.10;99.90;;;;;;5121445;27;20203;-70
2022/03/11 06:57:53;;;;;;;11.30;7.60;;;0.00;99.90;;;;;;5119433;27;20770;-69
2022/03/11 07:00:21;;;;;;;14.15;7.88;;;0.00;99.90;;;;;;5120238;27;20824;-70
2022/03/11 07:02:49;;;;;;;9.98;6.60;;;0.00;99.90;;;;;;5120159;27;20215;-69
2022/03/11 07:05:16;;;;;;;18.40;8.25;;;0.00;99.90;;;;;;5120784;27;20200;-67
2022/03/11 07:07:45;;;;;;;14.90;8.07;;;0.10;99.90;;;;;;5120942;27;20837;-71
2022/03/11 07:10:18;;;;;;;12.10;8.00;;;0.10;99.90;;;;;;5120037;27;20744;-66
2022/03/11 07:12:46;;;;;;;13.82;8.07;;;0.20;99.90;;;;;;5119833;27;20266;-67
2022/03/11 07:15:14;;;;;;;12.82;8.77;;;0.20;99.90;;;;;;5119602;27;20234;-69
2022/03/11 07:17:42;;;;;;;12.73;7.57;;;0.30;99.90;;;;;;5120508;27;20290;-68
2022/03/11 07:20:13;;;;;;;11.60;8.48;;;0.30;99.90;;;;;;5121430;28;20215;-68
2022/03/11 07:22:43;;;;;;;12.98;7.80;;;0.40;99.90;;;;;;5120926;27;20300;-68
2022/03/11 07:25:15;;;;;;;11.45;7.20;;;0.40;99.90;;;;;;5121806;28;20678;-66
2022/03/11 07:27:45;;;;;;;9.80;8.27;;;0.40;99.90;;;;;;5124150;27;20194;-70
2022/03/11 07:30:13;;;;;;;11.85;7.38;;;0.50;99.90;;;;;;5125733;27;20377;-69
2022/03/11 07:32:41;;;;;;;10.85;7.63;;;0.50;99.90;;;;;;5114231;27;20864;-68
2022/03/11 07:35:12;;;;;;;13.00;8.88;;;0.60;99.80;;;;;;5124580;27;20770;-67
2022/03/11 07:37:40;;;;;;;9.63;7.30;;;0.60;99.80;;;;;;5124487;27;20207;-72
2022/03/11 07:40:11;;;;;;;10.80;7.03;;;0.70;99.80;;;;;;5125396;27;20896;-70
2022/03/11 07:42:43;;;;;;;12.57;8.15;;;0.80;99.80;;;;;;5124830;27;20289;-71
2022/03/11 07:45:16;;;;;;;11.85;7.28;;;0.90;99.70;;;;;;5120228;27;20291;-70
2022/03/11 07:47:44;;;;;;;15.27;8.07;;;1.00;99.50;;;;;;5111058;27;20183;-70
2022/03/11 07:50:15;;;;;;;12.52;7.95;;;1.00;99.80;;;;;;5112977;27;20223;-70
2022/03/11 07:52:43;;;;;;;11.77;7.35;;;1.10;99.50;;;;;;5113056;27;20192;-72
2022/03/11 07:55:11;;;;;;;13.82;8.02;;;1.20;99.40;;;;;;5107443;27;20200;-71
2022/03/11 07:57:41;;;;;;;9.57;7.35;;;1.20;98.80;;;;;;5104776;28;20212;-70
2022/03/11 08:00:10;;;;;;;13.38;9.02;;;1.30;99.00;;;;;;5103031;28;20226;-70
2022/03/11 08:02:39;;;;;;;12.05;8.23;;;1.30;98.80;;;;;;5104050;28;20212;-70
2022/03/11 08:05:14;;;;;;;12.68;7.50;;;1.30;98.70;;;;;;5104686;28;20264;-72
2022/03/11 08:07:45;;;;;;;11.68;8.10;;;1.40;98.50;;;;;;5103510;27;20206;-73
2022/03/11 08:10:13;;;;;;;13.70;8.45;;;1.40;98.40;;;;;;5119718;27;20605;-72
2022/03/11 08:12:42;;;;;;;17.67;8.50;;;1.40;98.30;;;;;;5125556;27;20646;-72
2022/03/11 08:15:12;;;;;;;10.85;7.45;;;1.50;98.20;;;;;;5125248;27;20259;-72
2022/03/11 08:17:41;;;;;;;12.52;7.25;;;1.60;97.90;;;;;;5122709;27;20202;-65
2022/03/11 08:20:09;;;;;;;11.40;8.05;;;1.60;98.10;;;;;;5122631;27;20215;-66
2022/03/11 08:22:38;;;;;;;14.25;8.75;;;1.60;97.70;;;;;;5122922;27;20223;-66
2022/03/11 08:25:08;;;;;;;12.23;8.45;;;1.60;97.50;;;;;;5123753;27;20274;-67
2022/03/11 08:27:36;;;;;;;10.68;7.60;;;1.70;97.60;;;;;;5122766;27;20245;-67
2022/03/11 08:30:06;;;;;;;10.52;6.93;;;1.70;97.50;;;;;;5123161;27;20481;-65
2022/03/11 08:32:34;;;;;;;16.40;7.68;;;1.80;97.40;;;;;;5123844;27;20213;-66
2022/03/11 08:35:02;;;;;;;12.35;7.15;;;1.80;97.20;;;;;;5125152;27;20213;-65
2022/03/11 08:37:39;;;;;;;12.68;6.78;;;1.90;97.10;;;;;;5125712;27;20247;-67
2022/03/11 08:40:10;;;;;;;9.77;7.15;;;1.90;97.20;;;;;;5127587;27;20284;-65
2022/03/11 08:42:38;;;;;;;9.55;6.72;;;2.00;96.90;;;;;;5128789;27;20239;-69
2022/03/11 08:45:11;;;;;;;10.65;8.07;;;2.00;96.90;;;;;;5129101;27;20195;-65
2022/03/11 08:47:44;;;;;;;11.32;7.38;;;2.10;96.80;;;;;;5133195;27;20689;-68
2022/03/11 08:50:16;;;;;;;11.30;8.25;;;2.20;97.00;;;;;;5133436;27;20242;-67
2022/03/11 08:52:45;;;;;;;13.48;9.10;;;2.20;96.50;;;;;;5132855;27;20261;-68
2022/03/11 08:55:17;;;;;;;8.95;6.72;;;2.30;96.50;;;;;;5130806;27;20279;-68
2022/03/11 08:57:49;;;;;;;11.77;7.85;;;2.30;96.30;;;;;;5134062;27;20514;-67
2022/03/11 09:00:20;;;;;;;9.27;6.80;;;2.40;96.50;;;;;;5129028;27;20233;-68
2022/03/11 09:02:49;;;;;;;14.52;7.85;;;2.40;96.20;;;;;;5121197;27;20203;-69
2022/03/11 09:05:20;;;;;;;12.85;7.53;;;2.40;96.00;;;;;;5121549;27;20604;-68
2022/03/11 09:07:51;;;;;;;12.00;7.10;;;2.40;96.00;;;;;;5122580;27;20709;-70
2022/03/11 09:10:19;;;;;;;9.32;7.03;;;2.50;96.10;;;;;;5121950;27;20214;-69
2022/03/11 09:12:47;;;;;;;9.15;8.35;;;2.50;96.00;;;;;;5121576;27;20282;-69
2022/03/11 09:15:15;;;;;;;10.52;8.35;;;2.60;96.30;;;;;;5122146;27;20550;-69
2022/03/11 09:17:48;;;;;;;13.02;7.50;;;2.70;95.80;;;;;;5124010;27;20237;-70
2022/03/11 09:20:17;;;;;;;10.70;7.30;;;2.80;95.60;;;;;;5126446;27;20229;-68
2022/03/11 09:22:59;;;;;;;10.98;7.60;;;2.80;95.40;;;;;;5125349;27;20258;-68
2022/03/11 09:25:27;;;;;;;14.38;8.55;;;2.90;95.60;;;;;;5125655;27;20466;-71
2022/03/11 09:27:55;;;;;;;12.95;7.80;;;3.00;95.50;;;;;;5126257;27;20264;-69
2022/03/11 09:30:25;;;;;;;10.90;7.53;;;3.00;95.40;;;;;;5126461;27;20311;-67
2022/03/11 09:33:00;;;;;;;12.48;7.72;;;3.10;95.30;;;;;;5127093;27;20244;-69
2022/03/11 09:35:34;;;;;;;14.65;7.60;;;3.20;95.30;;;;;;5128162;27;20229;-68
2022/03/11 09:38:08;;;;;;;13.30;8.07;;;3.20;95.20;;;;;;5126351;27;20229;-70
2022/03/11 09:40:36;;;;;;;11.23;7.05;;;3.30;95.10;;;;;;5126255;27;20284;-68
2022/03/11 09:43:05;;;;;;;8.52;7.43;;;3.40;95.30;;;;;;5124473;27;20242;-70
2022/03/11 09:45:34;;;;;;;11.68;7.10;;;3.40;94.80;;;;;;5124453;27;20646;-70
2022/03/11 09:48:05;;;;;;;11.35;7.25;;;3.50;94.70;;;;;;5125272;27;20199;-67
2022/03/11 09:50:36;;;;;;;9.60;7.90;;;3.60;94.30;;;;;;5124621;27;20665;-70
2022/03/11 09:53:04;;;;;;;11.45;6.75;;;3.60;94.20;;;;;;5125478;27;20199;-69
2022/03/11 09:55:32;;;;;;;14.68;8.85;;;3.70;94.60;;;;;;5122135;27;20791;-67
2022/03/11 09:58:05;;;;;;;12.23;7.70;;;3.80;94.40;;;;;;5126933;27;20207;-68
2022/03/11 10:00:33;;;;;;;13.32;7.53;;;3.90;93.80;;;;;;5126794;27;20823;-67
2022/03/11 10:03:02;;;;;;;12.60;7.20;;;4.00;93.80;;;;;;5126513;27;20218;-68
2022/03/11 10:05:53;;;;;;;10.50;7.53;;;4.10;93.90;;;;;;5125320;27;20783;-66
2022/03/11 10:08:34;;;;;;;11.35;7.47;;;4.20;93.30;;;;;;5093076;27;20234;-69
2022/03/11 10:11:25;;;;;;;9.23;7.40;;;4.20;93.00;;;;;;5125827;27;20477;-70
2022/03/11 10:14:09;;;;;;;13.25;7.50;;;4.30;93.20;;;;;;5126265;27;20175;-69
2022/03/11 10:16:41;;;;;;;18.58;7.05;;;4.30;93.40;;;;;;5125692;27;20210;-70
2022/03/11 10:19:11;;;;;;;18.77;7.63;;;4.50;93.20;;;;;;5126064;27;20210;-69
2022/03/11 10:21:47;;;;;;;12.02;7.07;;;4.50;92.60;;;;;;5120780;27;20201;-68
2022/03/11 10:24:18;;;;;;;15.23;7.65;;;4.60;92.60;;;;;;5120000;27;20618;-67
2022/03/11 10:26:47;;;;;;;8.05;7.18;;;4.60;92.40;;;;;;5124363;27;20205;-69
2022/03/11 10:29:17;;;;;;;9.57;7.13;;;4.70;92.20;;;;;;5126969;27;20247;-67
2022/03/11 10:31:50;;;;;;;14.30;6.70;;;4.70;92.00;;;;;;5125727;27;20262;-68
2022/03/11 10:34:23;;;;;;;10.23;6.57;;;4.80;92.10;;;;;;5123990;27;20263;-67
2022/03/11 10:36:58;;;;;;;16.13;7.43;;;4.90;92.20;;;;;;5124758;27;20203;-67
2022/03/11 10:39:27;;;;;;;11.23;6.88;;;4.90;91.90;;;;;;5124485;27;20219;-70
2022/03/11 10:42:22;;;;;;;10.02;7.82;;;5.00;92.00;;;;;;5123776;27;20443;-68
2022/03/11 10:44:58;;;;;;;9.88;7.60;;;5.10;91.90;;;;;;5124830;27;20205;-69
2022/03/11 10:47:28;;;;;;;10.82;7.65;;;5.10;91.50;;;;;;5124585;27;20256;-68
2022/03/11 10:49:59;;;;;;;15.82;8.52;;;5.20;91.70;;;;;;5128164;27;20372;-68
2022/03/11 10:52:33;;;;;;;15.32;8.73;;;5.20;91.30;;;;;;5125554;27;20183;-69
2022/03/11 10:55:16;;;;;;;8.10;6.10;;;5.30;91.30;;;;;;5123438;27;20681;-69
2022/03/11 10:57:45;;;;;;;12.05;6.78;;;5.40;91.90;;;;;;5120567;27;20184;-68
2022/03/11 11:00:21;;;;;;;9.10;6.20;;;5.50;90.90;;;;;;5120023;27;20651;-71
2022/03/11 11:02:50;;;;;;;12.18;7.35;;;5.50;91.10;;;;;;5120080;27;20575;-70
2022/03/11 11:05:19;;;;;;;9.35;6.55;;;5.60;91.60;;;;;;5120372;27;20569;-68
2022/03/11 11:07:49;;;;;;;8.40;6.70;;;5.70;91.70;;;;;;5120772;27;20207;-67
2022/03/11 11:10:19;;;;;;;7.93;6.90;;;5.90;91.10;;;;;;5119840;27;20233;-69
2022/03/11 11:12:49;;;;;;;10.15;6.78;;;5.90;91.10;;;;;;5120659;27;20185;-70
2022/03/11 11:15:17;;;;;;;9.85;5.90;;;6.00;90.30;;;;;;5120167;27;20205;-68
2022/03/11 11:17:47;;;;;;;8.38;6.78;;;6.00;90.10;;;;;;5119252;27;20693;-70
2022/03/11 11:20:20;;;;;;;7.55;6.80;;;6.10;88.40;;;;;;5119442;27;20774;-70
2022/03/11 11:22:51;;;;;;;10.73;6.50;;;6.20;88.80;;;;;;5120041;27;20235;-71
2022/03/11 11:25:22;;;;;;;11.90;7.80;;;6.20;89.50;;;;;;5119983;27;20335;-70
2022/03/11 11:27:51;;;;;;;8.65;5.93;;;6.20;89.20;;;;;;5119550;27;20187;-71
2022/03/11 11:30:21;;;;;;;10.65;6.60;;;6.30;89.10;;;;;;5120749;27;20229;-71
2022/03/11 11:32:52;;;;;;;11.73;6.57;;;6.40;89.50;;;;;;5120725;27;20290;-71
2022/03/11 11:35:28;;;;;;;9.88;6.97;;;6.50;89.10;;;;;;5121259;27;20199;-65
2022/03/11 11:38:00;;;;;;;9.27;7.10;;;6.60;88.80;;;;;;5122004;27;20843;-66
2022/03/11 11:40:32;;;;;;;10.45;6.75;;;6.60;88.30;;;;;;5119253;27;20294;-66
2022/03/11 11:43:28;;;;;;;16.85;7.00;;;6.60;88.40;;;;;;5118762;27;20187;-66
2022/03/11 11:46:03;;;;;;;10.77;6.35;;;6.70;88.10;;;;;;5105191;27;20471;-65
2022/03/11 11:48:57;;;;;;;8.88;6.90;;;6.70;87.30;;;;;;5119440;27;20225;-66
2022/03/11 11:51:55;;;;;;;9.95;7.28;;;6.80;88.10;;;;;;5120317;27;20199;-66
2022/03/11 11:54:43;;;;;;;11.38;6.57;;;6.90;88.10;;;;;;5120477;27;20250;-65
2022/03/11 11:57:20;;;;;;;12.20;7.13;;;7.00;87.00;;;;;;5119230;27;20611;-68
2022/03/11 11:59:48;;;;;;;7.97;6.60;;;7.00;87.60;;;;;;5119330;27;20660;-66
2022/03/11 12:02:39;;;;;;;8.02;6.68;;;7.00;87.50;;;;;;5119130;27;20207;-66
2022/03/11 12:05:51;;;;;;;10.73;6.70;;;7.10;88.00;;;;;;5119615;27;20626;-65
2022/03/11 12:08:50;;;;;;;9.73;7.80;;;7.20;88.00;;;;;;5119632;27;20413;-64
2022/03/11 12:11:42;;;;;;;16.00;6.38;;;7.30;86.40;;;;;;5110399;27;20271;-66
2022/03/11 12:14:17;;;;;;;8.30;6.10;;;7.40;85.60;;;;;;5099689;28;20455;-65
2022/03/11 12:17:02;;;;;;;14.55;6.63;;;7.50;85.80;;;;;;5102760;28;20206;-65
2022/03/11 12:19:40;;;;;;;9.02;7.10;;;7.50;85.60;;;;;;5101817;28;20496;-64
2022/03/11 12:22:30;;;;;;;8.75;6.93;;;7.60;86.40;;;;;;5113971;27;20290;-65
2022/03/11 12:25:02;;;;;;;12.13;6.93;;;7.60;85.60;;;;;;5122665;27;20306;-65
2022/03/11 12:28:18;;;;;;;9.13;6.32;;;7.60;85.70;;;;;;5122706;27;20712;-66
2022/03/11 12:30:55;;;;;;;7.30;6.25;;;7.60;85.90;;;;;;5122891;27;20223;-65
2022/03/11 12:33:26;;;;;;;8.68;6.45;;;7.70;86.00;;;;;;5122479;27;20210;-67
2022/03/11 12:35:58;;;;;;;9.20;6.50;;;7.80;85.50;;;;;;5123242;27;20242;-68
2022/03/11 12:38:28;;;;;;;8.80;6.07;;;7.80;85.50;;;;;;5124096;27;20203;-65
2022/03/11 12:41:01;;;;;;;8.48;6.80;;;7.80;84.90;;;;;;5122807;27;20314;-68
2022/03/11 12:43:30;;;;;;;7.72;6.75;;;7.90;85.00;;;;;;5124724;27;20277;-68
2022/03/11 12:46:00;;;;;;;9.80;5.80;;;7.90;85.40;;;;;;5124534;27;20209;-65
2022/03/11 12:48:30;;;;;;;8.43;6.50;;;8.00;84.40;;;;;;5125457;27;20228;-67
2022/03/11 12:50:59;;;;;;;9.68;7.30;;;8.00;84.10;;;;;;5124938;27;20912;-68
2022/03/11 12:53:28;;;;;;;11.35;6.43;;;8.10;83.90;;;;;;5125337;27;20829;-68
2022/03/11 12:55:57;;;;;;;8.73;6.53;;;8.10;83.80;;;;;;5125386;27;20197;-68
2022/03/11 12:58:31;;;;;;;11.90;7.18;;;8.10;83.10;;;;;;5128002;27;20260;-69
2022/03/11 13:01:04;;;;;;;9.38;6.38;;;8.10;83.40;;;;;;5131384;27;20218;-70
2022/03/11 13:03:36;;;;;;;10.02;6.57;;;8.20;83.80;;;;;;5131786;27;20410;-68
2022/03/11 13:06:09;;;;;;;9.10;6.88;;;8.30;83.90;;;;;;5130116;27;20238;-68